Flight Track Log - Related Links

Times and Time Zones

All times are in EDT time to prevent confusion due to time zone crossing. See the KAP927 flight status page for this flight to view local times or setup timezone preferences in your user account.

Time Position Orientation Groundspeed Altitude Reporting Facility
EDT Latitude Longitude Course Direction KTS MPH feet Rate Location/Type
Sun 08:25:44 AM 42.7925 -73.7839 100° East 118 136 1,600  Level Boston Center
Sun 08:26:45 AM 42.7869 -73.7414 100° East 120 138 2,200 545 Climbing Boston Center
Sun 08:27:45 AM 42.7769 -73.6961 107° East 126 145 2,700 496 Climbing Boston Center
Sun 08:28:46 AM 42.7714 -73.6450 98° East 137 158 3,200 466 Climbing Boston Center
Sun 08:29:41 AM 42.7633 -73.5967 103° East 142 163 3,600 470 Climbing Boston Center
Sun 08:30:41 AM 42.7556 -73.5428 101° East 144 166 4,100 472 Climbing Boston Center
Sun 08:31:48 AM 42.7500 -73.4861 98° East 143 165 4,600 496 Climbing Boston Center
Sun 08:32:42 AM 42.7400 -73.4381 106° East 146 168 5,100 470 Climbing Boston Center
Sun 08:33:43 AM 42.7342 -73.3842 98° East 147 169 5,500 443 Climbing Boston Center
Sun 08:34:44 AM 42.7264 -73.3247 100° East 149 171 6,000 480 Climbing Boston Center
Sun 08:35:48 AM 42.7164 -73.2653 103° East 148 170 6,500 435 Climbing Boston Center
Sun 08:36:48 AM 42.7083 -73.2086 101° East 157 181 6,900 450 Climbing Boston Center
Sun 08:37:48 AM 42.7003 -73.1492 100° East 163 188 7,400 350 Climbing Boston Center
Sun 08:38:48 AM 42.6925 -73.0925 101° East 163 188 7,600 100 Climbing Boston Center
Sun 08:39:48 AM 42.6822 -73.0303 103° East 163 188 7,600  Level Boston Center
Sun 08:40:48 AM 42.6742 -72.9767 102° East 163 188 7,600  Level Boston Center
Sun 08:41:48 AM 42.6661 -72.9144 100° East 163 188 7,600  Level Boston Center
Sun 08:42:48 AM 42.6581 -72.8522 100° East 163 188 7,600  Level Boston Center
Sun 08:43:48 AM 42.6478 -72.7900 103° East 163 188 7,600  Level Boston Center
Sun 08:44:48 AM 42.6397 -72.7281 100° East 163 188 7,600  Level Boston Center
Sun 08:45:48 AM 42.6294 -72.6686 103° East 163 188 7,600  Level Boston Center
Sun 08:46:48 AM 42.6192 -72.6067 103° East 163 188 7,600  Level Boston Center
Sun 08:47:48 AM 42.6108 -72.5444 100° East 163 188 7,600  Level Boston Center
Sun 08:48:48 AM 42.6025 -72.4825 100° East 163 188 7,600  Level Boston Center
Sun 08:49:48 AM 42.5942 -72.4203 100° East 163 188 7,600  Level Boston Center
Sun 08:50:48 AM 42.5858 -72.3583 100° East 163 188 7,600  Level Boston Center
Sun 08:51:48 AM 42.5753 -72.3103 107° East 163 188 7,600  Level Boston Center
Sun 08:52:48 AM 42.5606 -72.2286 104° East 173 199 7,600  Level Boston Center
Sun 08:53:48 AM 42.5500 -72.1667 103° East 167 192 7,600  Level Boston Center
Sun 08:54:48 AM 42.5417 -72.1047 100° East 167 192 7,600 -50 Level Boston Center
Sun 08:55:48 AM 42.5311 -72.0456 104° East 167 192 7,500 -50 Descending Boston Center
Sun 08:56:48 AM 42.5225 -71.9836 101° East 162 186 7,500 50 Level Boston Center
Sun 08:57:48 AM 42.5158 -71.9219 98° East 162 186 7,600 50 Climbing Boston Center
Sun 08:58:48 AM 42.5094 -71.8628 98° East 162 186 7,600 -300 Level Boston Center
Sun 08:59:48 AM 42.4986 -71.7953 102° East 162 186 7,000 -550 Descending Boston Center
Sun 09:00:48 AM 42.4942 -71.7306 95° East 172 198 6,500 -400 Descending Boston Center
Sun 09:01:48 AM 42.4978 -71.6628 86° East 178 205 6,200 -306 Descending Boston Center
Sun 09:02:26 AM 42.5000 -71.6167 86° East 176 203 6,000 -288 Descending KA90
Sun 09:03:32 AM 42.5167 -71.5500 71° East 178 205 5,700 -200 Descending KA90
Sun 09:04:26 AM 42.5167 -71.4833 90° East 177 204 5,600 -105 Descending KA90
Sun 09:05:26 AM 42.5167 -71.4167 90° East 170 196 5,500 -211 Descending KA90
Sun 09:06:20 AM 42.5167 -71.3667 90° East 178 205 5,200 -450 Descending KA90
Sun 09:07:26 AM 42.5333 -71.2833 75° East 185 213 4,600 -455 Descending KA90
Sun 09:08:32 AM 42.5167 -71.2167 109° East 176 203 4,200 -524 Descending KA90
Sun 09:09:32 AM 42.5000 -71.1500 109° East 179 206 3,500 -737 Descending KA90
Sun 09:10:26 AM 42.4833 -71.1000 114° Southeast 178 205 2,800 -842 Descending KA90
Sun 09:11:26 AM 42.4500 -71.0500 132° Southeast 167 192 1,900 -857 Descending KA90
Sun 09:12:32 AM 42.4167 -71.0000 132° Southeast 162 186 1,000 -793 Descending KA90
Sun 09:13:27 AM 42.3833 -71.0000 180° South 134 154 300 -764 Descending KA90
Sun 09:15:00 AM 42.3630 -71.0064 270° West  Level Estimated
Sun 09:22:00 AM 42.3630 -71.0064 270° West  Level Estimated

Login

Don't have an account? Register now (free) for customized features, flight alerts, and more!